sensor_id;sensor_type;location;lat;lon;timestamp;temperature;humidity
76203;DHT22;64985;46.364;17.008;2023-12-20T00:02:05;-2.10;99.90
76203;DHT22;64985;46.364;17.008;2023-12-20T00:05:08;-1.90;99.90
76203;DHT22;64985;46.364;17.008;2023-12-20T00:08:10;-1.90;99.90
76203;DHT22;64985;46.364;17.008;2023-12-20T00:11:13;-1.90;99.90
76203;DHT22;64985;46.364;17.008;2023-12-20T00:14:15;-1.80;99.90
76203;DHT22;64985;46.364;17.008;2023-12-20T00:17:17;-1.90;99.90
76203;DHT22;64985;46.364;17.008;2023-12-20T00:20:20;-1.70;99.90
76203;DHT22;64985;46.364;17.008;2023-12-20T00:23:23;-1.50;99.90
76203;DHT22;64985;46.364;17.008;2023-12-20T00:26:25;-1.60;99.90
76203;DHT22;64985;46.364;17.008;2023-12-20T00:29:30;-1.70;99.90
76203;DHT22;64985;46.364;17.008;2023-12-20T00:32:32;-1.80;99.90
76203;DHT22;64985;46.364;17.008;2023-12-20T00:35:35;-1.90;99.90
76203;DHT22;64985;46.364;17.008;2023-12-20T00:38:37;-1.90;99.90
76203;DHT22;64985;46.364;17.008;2023-12-20T00:41:40;-1.90;99.90
76203;DHT22;64985;46.364;17.008;2023-12-20T00:44:42;-2.00;99.90
76203;DHT22;64985;46.364;17.008;2023-12-20T00:47:45;-2.00;99.90
76203;DHT22;64985;46.364;17.008;2023-12-20T00:50:48;-2.00;99.90
76203;DHT22;64985;46.364;17.008;2023-12-20T00:53:50;-2.00;99.90
76203;DHT22;64985;46.364;17.008;2023-12-20T00:56:57;-2.00;99.90
76203;DHT22;64985;46.364;17.008;2023-12-20T00:59:59;-2.10;99.90
76203;DHT22;64985;46.364;17.008;2023-12-20T01:03:01;-2.10;99.90
76203;DHT22;64985;46.364;17.008;2023-12-20T01:06:03;-1.80;99.90
76203;DHT22;64985;46.364;17.008;2023-12-20T01:09:07;-1.80;99.90
76203;DHT22;64985;46.364;17.008;2023-12-20T01:12:09;-1.80;99.90
76203;DHT22;64985;46.364;17.008;2023-12-20T01:15:12;-1.90;99.90
76203;DHT22;64985;46.364;17.008;2023-12-20T01:18:14;-2.00;99.90
76203;DHT22;64985;46.364;17.008;2023-12-20T01:21:16;-2.10;99.90
76203;DHT22;64985;46.364;17.008;2023-12-20T01:24:19;-2.10;99.90
76203;DHT22;64985;46.364;17.008;2023-12-20T01:27:21;-2.20;99.90
76203;DHT22;64985;46.364;17.008;2023-12-20T01:30:23;-2.20;99.90
76203;DHT22;64985;46.364;17.008;2023-12-20T01:33:26;-2.20;99.90
76203;DHT22;64985;46.364;17.008;2023-12-20T01:36:29;-2.30;99.90
76203;DHT22;64985;46.364;17.008;2023-12-20T01:39:31;-2.30;99.90
76203;DHT22;64985;46.364;17.008;2023-12-20T01:42:33;-2.20;99.90
76203;DHT22;64985;46.364;17.008;2023-12-20T01:45:36;-2.10;99.90
76203;DHT22;64985;46.364;17.008;2023-12-20T01:48:38;-2.20;99.90
76203;DHT22;64985;46.364;17.008;2023-12-20T01:51:41;-2.20;99.90
76203;DHT22;64985;46.364;17.008;2023-12-20T01:54:44;-2.30;99.90
76203;DHT22;64985;46.364;17.008;2023-12-20T01:57:46;-2.40;99.90
76203;DHT22;64985;46.364;17.008;2023-12-20T02:00:52;-2.50;99.90
76203;DHT22;64985;46.364;17.008;2023-12-20T02:03:55;-2.50;99.90
76203;DHT22;64985;46.364;17.008;2023-12-20T02:06:59;-2.50;99.90
76203;DHT22;64985;46.364;17.008;2023-12-20T02:10:02;-2.50;99.90
76203;DHT22;64985;46.364;17.008;2023-12-20T02:13:06;-2.50;99.90
76203;DHT22;64985;46.364;17.008;2023-12-20T02:16:08;-2.50;99.90
76203;DHT22;64985;46.364;17.008;2023-12-20T02:19:13;-2.60;99.90
76203;DHT22;64985;46.364;17.008;2023-12-20T02:22:16;-2.60;99.90
76203;DHT22;64985;46.364;17.008;2023-12-20T02:25:19;-2.70;99.90
76203;DHT22;64985;46.364;17.008;2023-12-20T02:28:22;-2.70;99.90
76203;DHT22;64985;46.364;17.008;2023-12-20T02:31:25;-2.60;99.90
76203;DHT22;64985;46.364;17.008;2023-12-20T02:34:28;-2.60;99.90
76203;DHT22;64985;46.364;17.008;2023-12-20T02:37:30;-2.60;99.90
76203;DHT22;64985;46.364;17.008;2023-12-20T02:40:33;-2.70;99.90
76203;DHT22;64985;46.364;17.008;2023-12-20T02:43:35;-2.70;99.90
76203;DHT22;64985;46.364;17.008;2023-12-20T02:46:37;-2.70;99.90
76203;DHT22;64985;46.364;17.008;2023-12-20T02:49:40;-2.60;99.90
76203;DHT22;64985;46.364;17.008;2023-12-20T02:52:45;-2.60;99.90
76203;DHT22;64985;46.364;17.008;2023-12-20T02:55:47;-2.60;99.90
76203;DHT22;64985;46.364;17.008;2023-12-20T02:58:50;-2.60;99.90
76203;DHT22;64985;46.364;17.008;2023-12-20T03:01:52;-2.60;99.90
76203;DHT22;64985;46.364;17.008;2023-12-20T03:04:54;-2.60;99.90
76203;DHT22;64985;46.364;17.008;2023-12-20T03:07:56;-2.70;99.90
76203;DHT22;64985;46.364;17.008;2023-12-20T03:10:59;-2.60;99.90
76203;DHT22;64985;46.364;17.008;2023-12-20T03:14:01;-2.60;99.90
76203;DHT22;64985;46.364;17.008;2023-12-20T03:17:04;-2.50;99.90
76203;DHT22;64985;46.364;17.008;2023-12-20T03:20:06;-2.50;99.90
76203;DHT22;64985;46.364;17.008;2023-12-20T03:23:09;-2.50;99.90
76203;DHT22;64985;46.364;17.008;2023-12-20T03:26:12;-2.30;99.90
76203;DHT22;64985;46.364;17.008;2023-12-20T03:29:14;-2.20;99.90
76203;DHT22;64985;46.364;17.008;2023-12-20T03:32:16;-2.00;99.90
76203;DHT22;64985;46.364;17.008;2023-12-20T03:35:19;-1.90;99.90
76203;DHT22;64985;46.364;17.008;2023-12-20T03:38:22;-1.90;99.90
76203;DHT22;64985;46.364;17.008;2023-12-20T03:41:26;-1.80;99.90
76203;DHT22;64985;46.364;17.008;2023-12-20T03:44:28;-1.70;99.90
76203;DHT22;64985;46.364;17.008;2023-12-20T03:47:30;-1.70;99.90
76203;DHT22;64985;46.364;17.008;2023-12-20T03:50:32;-1.60;99.90
76203;DHT22;64985;46.364;17.008;2023-12-20T03:53:35;-1.50;99.90
76203;DHT22;64985;46.364;17.008;2023-12-20T03:56:37;-1.50;99.90
76203;DHT22;64985;46.364;17.008;2023-12-20T03:59:39;-1.40;99.90
76203;DHT22;64985;46.364;17.008;2023-12-20T04:02:42;-1.30;99.90
76203;DHT22;64985;46.364;17.008;2023-12-20T04:05:44;-1.30;99.90
76203;DHT22;64985;46.364;17.008;2023-12-20T04:08:46;-1.20;99.90
76203;DHT22;64985;46.364;17.008;2023-12-20T04:11:49;-1.10;99.90
76203;DHT22;64985;46.364;17.008;2023-12-20T04:14:51;-1.00;99.90
76203;DHT22;64985;46.364;17.008;2023-12-20T04:17:54;-1.00;99.90
76203;DHT22;64985;46.364;17.008;2023-12-20T04:20:56;-1.00;99.90
76203;DHT22;64985;46.364;17.008;2023-12-20T04:23:58;-0.90;99.90
76203;DHT22;64985;46.364;17.008;2023-12-20T04:27:01;-0.90;99.90
76203;DHT22;64985;46.364;17.008;2023-12-20T04:30:04;-0.80;99.90
76203;DHT22;64985;46.364;17.008;2023-12-20T04:33:07;-0.80;99.90
76203;DHT22;64985;46.364;17.008;2023-12-20T04:36:09;-0.80;99.90
76203;DHT22;64985;46.364;17.008;2023-12-20T04:39:13;-0.80;99.90
76203;DHT22;64985;46.364;17.008;2023-12-20T04:42:15;-0.70;99.90
76203;DHT22;64985;46.364;17.008;2023-12-20T04:45:17;-0.70;99.90
76203;DHT22;64985;46.364;17.008;2023-12-20T04:48:21;-0.70;99.90
76203;DHT22;64985;46.364;17.008;2023-12-20T04:51:23;-0.70;99.90
76203;DHT22;64985;46.364;17.008;2023-12-20T04:54:26;-0.70;99.90
76203;DHT22;64985;46.364;17.008;2023-12-20T04:57:28;-0.70;99.90
76203;DHT22;64985;46.364;17.008;2023-12-20T05:00:30;-0.70;99.90
76203;DHT22;64985;46.364;17.008;2023-12-20T05:03:33;-0.70;99.90
76203;DHT22;64985;46.364;17.008;2023-12-20T05:06:35;-0.70;99.90
76203;DHT22;64985;46.364;17.008;2023-12-20T05:09:38;-0.70;99.90
76203;DHT22;64985;46.364;17.008;2023-12-20T05:12:40;-0.60;99.90
76203;DHT22;64985;46.364;17.008;2023-12-20T05:15:42;-0.60;99.90
76203;DHT22;64985;46.364;17.008;2023-12-20T05:18:48;-0.60;99.90
76203;DHT22;64985;46.364;17.008;2023-12-20T05:21:52;-0.60;99.90
76203;DHT22;64985;46.364;17.008;2023-12-20T05:24:55;-0.60;99.90
76203;DHT22;64985;46.364;17.008;2023-12-20T05:27:57;-0.60;99.90
76203;DHT22;64985;46.364;17.008;2023-12-20T05:30:59;-0.60;99.90
76203;DHT22;64985;46.364;17.008;2023-12-20T05:34:02;-0.60;99.90
76203;DHT22;64985;46.364;17.008;2023-12-20T05:37:04;-0.60;99.90
76203;DHT22;64985;46.364;17.008;2023-12-20T05:40:07;-0.70;99.90
76203;DHT22;64985;46.364;17.008;2023-12-20T05:43:12;-0.60;99.90
76203;DHT22;64985;46.364;17.008;2023-12-20T05:46:14;-0.60;99.90
76203;DHT22;64985;46.364;17.008;2023-12-20T05:49:16;-0.60;99.90
76203;DHT22;64985;46.364;17.008;2023-12-20T05:52:19;-0.60;99.90
76203;DHT22;64985;46.364;17.008;2023-12-20T05:55:21;-0.50;99.90
76203;DHT22;64985;46.364;17.008;2023-12-20T05:58:24;-0.60;99.90
76203;DHT22;64985;46.364;17.008;2023-12-20T06:01:26;-0.50;99.90
76203;DHT22;64985;46.364;17.008;2023-12-20T06:04:29;-0.50;99.90
76203;DHT22;64985;46.364;17.008;2023-12-20T06:07:31;-0.50;99.90
76203;DHT22;64985;46.364;17.008;2023-12-20T06:10:33;-0.50;99.90
76203;DHT22;64985;46.364;17.008;2023-12-20T06:13:35;-0.50;99.90
76203;DHT22;64985;46.364;17.008;2023-12-20T06:16:38;-0.50;99.90
76203;DHT22;64985;46.364;17.008;2023-12-20T06:19:40;-0.50;99.90
76203;DHT22;64985;46.364;17.008;2023-12-20T06:22:44;-0.50;99.90
76203;DHT22;64985;46.364;17.008;2023-12-20T06:25:47;-0.50;99.90
76203;DHT22;64985;46.364;17.008;2023-12-20T06:28:49;-0.60;99.90
76203;DHT22;64985;46.364;17.008;2023-12-20T06:31:51;-0.60;99.90
76203;DHT22;64985;46.364;17.008;2023-12-20T06:34:53;-0.60;99.90
76203;DHT22;64985;46.364;17.008;2023-12-20T06:37:56;-0.60;99.90
76203;DHT22;64985;46.364;17.008;2023-12-20T06:40:59;-0.70;99.90
76203;DHT22;64985;46.364;17.008;2023-12-20T06:44:01;-0.80;99.90
76203;DHT22;64985;46.364;17.008;2023-12-20T06:47:04;-0.80;99.90
76203;DHT22;64985;46.364;17.008;2023-12-20T06:50:06;-0.80;99.90
76203;DHT22;64985;46.364;17.008;2023-12-20T06:53:10;-0.70;99.90
76203;DHT22;64985;46.364;17.008;2023-12-20T06:56:13;-0.80;99.90
76203;DHT22;64985;46.364;17.008;2023-12-20T06:59:19;-0.80;99.90
76203;DHT22;64985;46.364;17.008;2023-12-20T07:02:22;-0.90;99.90
76203;DHT22;64985;46.364;17.008;2023-12-20T07:05:24;-1.00;99.90
76203;DHT22;64985;46.364;17.008;2023-12-20T07:08:27;-0.90;99.90
76203;DHT22;64985;46.364;17.008;2023-12-20T07:11:29;-1.00;99.90
76203;DHT22;64985;46.364;17.008;2023-12-20T07:14:32;-1.00;99.90
76203;DHT22;64985;46.364;17.008;2023-12-20T07:17:34;-1.00;99.90
76203;DHT22;64985;46.364;17.008;2023-12-20T07:20:37;-1.00;99.90
76203;DHT22;64985;46.364;17.008;2023-12-20T07:23:39;-1.00;99.90
76203;DHT22;64985;46.364;17.008;2023-12-20T07:26:42;-0.90;99.90
76203;DHT22;64985;46.364;17.008;2023-12-20T07:29:45;-0.90;99.90
76203;DHT22;64985;46.364;17.008;2023-12-20T07:32:47;-0.90;99.90
76203;DHT22;64985;46.364;17.008;2023-12-20T07:35:49;-0.90;99.90
76203;DHT22;64985;46.364;17.008;2023-12-20T07:38:54;-0.90;99.90
76203;DHT22;64985;46.364;17.008;2023-12-20T07:41:56;-0.90;99.90
76203;DHT22;64985;46.364;17.008;2023-12-20T07:44:59;-0.80;99.90
76203;DHT22;64985;46.364;17.008;2023-12-20T07:48:01;-0.70;99.90
76203;DHT22;64985;46.364;17.008;2023-12-20T07:51:04;-0.70;99.90
76203;DHT22;64985;46.364;17.008;2023-12-20T07:54:09;-0.60;99.90
76203;DHT22;64985;46.364;17.008;2023-12-20T07:57:12;-0.60;99.90
76203;DHT22;64985;46.364;17.008;2023-12-20T08:00:15;-0.50;99.90
76203;DHT22;64985;46.364;17.008;2023-12-20T08:03:17;-0.60;99.90
76203;DHT22;64985;46.364;17.008;2023-12-20T08:06:19;-0.60;99.90
76203;DHT22;64985;46.364;17.008;2023-12-20T08:09:22;-0.60;99.90
76203;DHT22;64985;46.364;17.008;2023-12-20T08:12:24;-0.50;99.90
76203;DHT22;64985;46.364;17.008;2023-12-20T08:15:29;-0.40;99.90
76203;DHT22;64985;46.364;17.008;2023-12-20T08:18:31;-0.40;99.90
76203;DHT22;64985;46.364;17.008;2023-12-20T08:21:34;-0.30;99.90
76203;DHT22;64985;46.364;17.008;2023-12-20T08:24:40;-0.30;99.90
76203;DHT22;64985;46.364;17.008;2023-12-20T08:27:42;-0.20;99.90
76203;DHT22;64985;46.364;17.008;2023-12-20T08:30:45;-0.30;99.90
76203;DHT22;64985;46.364;17.008;2023-12-20T08:33:48;-0.20;99.90
76203;DHT22;64985;46.364;17.008;2023-12-20T08:36:51;-0.30;99.90
76203;DHT22;64985;46.364;17.008;2023-12-20T08:39:53;-0.20;99.90
76203;DHT22;64985;46.364;17.008;2023-12-20T08:42:56;-0.20;99.90
76203;DHT22;64985;46.364;17.008;2023-12-20T08:45:58;0.00;99.90
76203;DHT22;64985;46.364;17.008;2023-12-20T08:49:01;0.00;99.90
76203;DHT22;64985;46.364;17.008;2023-12-20T08:52:04;0.00;99.90
76203;DHT22;64985;46.364;17.008;2023-12-20T08:55:07;0.00;99.90
76203;DHT22;64985;46.364;17.008;2023-12-20T08:58:10;0.10;99.90
76203;DHT22;64985;46.364;17.008;2023-12-20T09:01:13;0.10;99.90
76203;DHT22;64985;46.364;17.008;2023-12-20T09:04:16;-0.10;99.90
76203;DHT22;64985;46.364;17.008;2023-12-20T09:07:25;-0.10;99.90
76203;DHT22;64985;46.364;17.008;2023-12-20T09:10:27;-0.20;99.90
76203;DHT22;64985;46.364;17.008;2023-12-20T09:13:30;0.00;99.90
76203;DHT22;64985;46.364;17.008;2023-12-20T09:16:34;0.10;99.90
76203;DHT22;64985;46.364;17.008;2023-12-20T09:19:36;0.20;99.90
76203;DHT22;64985;46.364;17.008;2023-12-20T09:22:39;0.20;99.90
76203;DHT22;64985;46.364;17.008;2023-12-20T09:25:41;0.30;99.90
76203;DHT22;64985;46.364;17.008;2023-12-20T09:28:44;0.40;99.90
76203;DHT22;64985;46.364;17.008;2023-12-20T09:31:47;0.50;99.90
76203;DHT22;64985;46.364;17.008;2023-12-20T09:34:49;0.50;99.90
76203;DHT22;64985;46.364;17.008;2023-12-20T09:37:52;0.60;99.90
76203;DHT22;64985;46.364;17.008;2023-12-20T09:40:54;0.60;99.90
76203;DHT22;64985;46.364;17.008;2023-12-20T09:44:00;0.60;99.90
76203;DHT22;64985;46.364;17.008;2023-12-20T09:47:04;0.50;99.90
76203;DHT22;64985;46.364;17.008;2023-12-20T09:50:07;0.70;99.90
76203;DHT22;64985;46.364;17.008;2023-12-20T09:53:14;0.70;99.90
76203;DHT22;64985;46.364;17.008;2023-12-20T09:56:17;0.80;99.90
76203;DHT22;64985;46.364;17.008;2023-12-20T09:59:19;0.80;99.90
76203;DHT22;64985;46.364;17.008;2023-12-20T10:02:25;0.90;99.90
76203;DHT22;64985;46.364;17.008;2023-12-20T10:05:31;0.90;99.90
76203;DHT22;64985;46.364;17.008;2023-12-20T10:08:34;0.80;99.90
76203;DHT22;64985;46.364;17.008;2023-12-20T10:11:37;0.90;99.90
76203;DHT22;64985;46.364;17.008;2023-12-20T10:14:40;1.00;99.90
76203;DHT22;64985;46.364;17.008;2023-12-20T10:17:42;0.90;99.90
76203;DHT22;64985;46.364;17.008;2023-12-20T10:20:44;1.00;99.90
76203;DHT22;64985;46.364;17.008;2023-12-20T10:23:47;1.00;99.90
76203;DHT22;64985;46.364;17.008;2023-12-20T10:27:11;0.90;99.90
76203;DHT22;64985;46.364;17.008;2023-12-20T10:30:14;0.80;99.90
76203;DHT22;64985;46.364;17.008;2023-12-20T10:33:30;0.70;99.90
76203;DHT22;64985;46.364;17.008;2023-12-20T10:36:34;0.90;99.90
76203;DHT22;64985;46.364;17.008;2023-12-20T10:39:39;0.90;99.90
76203;DHT22;64985;46.364;17.008;2023-12-20T10:42:41;0.90;99.90
76203;DHT22;64985;46.364;17.008;2023-12-20T10:45:45;0.90;99.90
76203;DHT22;64985;46.364;17.008;2023-12-20T10:48:48;0.90;99.90
76203;DHT22;64985;46.364;17.008;2023-12-20T10:51:54;0.70;99.90
76203;DHT22;64985;46.364;17.008;2023-12-20T10:54:59;0.80;99.90
76203;DHT22;64985;46.364;17.008;2023-12-20T10:58:06;1.00;99.90
76203;DHT22;64985;46.364;17.008;2023-12-20T11:01:09;1.00;99.90
76203;DHT22;64985;46.364;17.008;2023-12-20T11:04:23;1.10;99.90
76203;DHT22;64985;46.364;17.008;2023-12-20T11:07:33;1.00;99.90
76203;DHT22;64985;46.364;17.008;2023-12-20T11:13:55;1.30;99.90
76203;DHT22;64985;46.364;17.008;2023-12-20T11:17:09;1.50;99.90
76203;DHT22;64985;46.364;17.008;2023-12-20T11:20:12;1.50;99.90
76203;DHT22;64985;46.364;17.008;2023-12-20T11:23:15;1.60;99.90
76203;DHT22;64985;46.364;17.008;2023-12-20T11:26:26;1.80;99.90
76203;DHT22;64985;46.364;17.008;2023-12-20T11:32:35;2.00;99.90
76203;DHT22;64985;46.364;17.008;2023-12-20T11:35:39;2.10;99.90
76203;DHT22;64985;46.364;17.008;2023-12-20T11:38:56;2.30;99.90
76203;DHT22;64985;46.364;17.008;2023-12-20T11:42:04;2.40;99.90
76203;DHT22;64985;46.364;17.008;2023-12-20T11:45:13;2.70;99.90
76203;DHT22;64985;46.364;17.008;2023-12-20T11:48:19;2.90;99.90
76203;DHT22;64985;46.364;17.008;2023-12-20T11:51:21;3.00;99.90
76203;DHT22;64985;46.364;17.008;2023-12-20T11:54:23;3.10;99.90
76203;DHT22;64985;46.364;17.008;2023-12-20T11:57:26;3.00;99.90
76203;DHT22;64985;46.364;17.008;2023-12-20T12:00:29;2.80;99.90
76203;DHT22;64985;46.364;17.008;2023-12-20T12:03:32;2.60;99.90
76203;DHT22;64985;46.364;17.008;2023-12-20T12:06:35;2.60;99.90
76203;DHT22;64985;46.364;17.008;2023-12-20T12:09:37;2.40;99.90
76203;DHT22;64985;46.364;17.008;2023-12-20T12:12:40;2.20;99.90
76203;DHT22;64985;46.364;17.008;2023-12-20T12:15:42;2.10;99.90
76203;DHT22;64985;46.364;17.008;2023-12-20T12:18:45;2.30;99.90
76203;DHT22;64985;46.364;17.008;2023-12-20T12:21:48;2.50;99.90
76203;DHT22;64985;46.364;17.008;2023-12-20T12:24:50;2.60;99.90
76203;DHT22;64985;46.364;17.008;2023-12-20T12:27:53;2.60;99.90
76203;DHT22;64985;46.364;17.008;2023-12-20T12:30:59;2.40;99.90
76203;DHT22;64985;46.364;17.008;2023-12-20T12:34:02;2.30;99.90
76203;DHT22;64985;46.364;17.008;2023-12-20T12:37:04;2.20;99.90
76203;DHT22;64985;46.364;17.008;2023-12-20T12:40:11;2.10;99.90
76203;DHT22;64985;46.364;17.008;2023-12-20T12:43:13;1.90;99.90
76203;DHT22;64985;46.364;17.008;2023-12-20T12:46:15;1.60;99.90
76203;DHT22;64985;46.364;17.008;2023-12-20T12:49:18;1.70;99.90
76203;DHT22;64985;46.364;17.008;2023-12-20T12:52:20;1.70;99.90
76203;DHT22;64985;46.364;17.008;2023-12-20T12:55:22;1.80;99.90
76203;DHT22;64985;46.364;17.008;2023-12-20T12:58:24;1.80;99.90
76203;DHT22;64985;46.364;17.008;2023-12-20T13:01:28;1.80;99.90
76203;DHT22;64985;46.364;17.008;2023-12-20T13:04:30;1.90;99.90
76203;DHT22;64985;46.364;17.008;2023-12-20T13:07:33;1.90;99.90
76203;DHT22;64985;46.364;17.008;2023-12-20T13:10:36;1.90;99.90
76203;DHT22;64985;46.364;17.008;2023-12-20T13:13:38;1.80;99.90
76203;DHT22;64985;46.364;17.008;2023-12-20T13:16:40;1.80;99.90
76203;DHT22;64985;46.364;17.008;2023-12-20T13:19:43;1.90;99.90
76203;DHT22;64985;46.364;17.008;2023-12-20T13:22:45;1.80;99.90
76203;DHT22;64985;46.364;17.008;2023-12-20T13:25:49;1.80;99.90
76203;DHT22;64985;46.364;17.008;2023-12-20T13:28:51;1.80;99.90
76203;DHT22;64985;46.364;17.008;2023-12-20T13:31:53;1.80;99.90
76203;DHT22;64985;46.364;17.008;2023-12-20T13:34:56;1.50;99.90
76203;DHT22;64985;46.364;17.008;2023-12-20T13:37:59;1.50;99.90
76203;DHT22;64985;46.364;17.008;2023-12-20T13:41:01;1.60;99.90
76203;DHT22;64985;46.364;17.008;2023-12-20T13:44:04;1.60;99.90
76203;DHT22;64985;46.364;17.008;2023-12-20T13:47:06;1.50;99.90
76203;DHT22;64985;46.364;17.008;2023-12-20T13:50:09;1.50;99.90
76203;DHT22;64985;46.364;17.008;2023-12-20T13:53:11;1.40;99.90
76203;DHT22;64985;46.364;17.008;2023-12-20T13:56:14;1.50;99.90
76203;DHT22;64985;46.364;17.008;2023-12-20T13:59:17;1.70;99.90
76203;DHT22;64985;46.364;17.008;2023-12-20T14:02:19;1.70;99.90
76203;DHT22;64985;46.364;17.008;2023-12-20T14:05:21;1.60;99.90
76203;DHT22;64985;46.364;17.008;2023-12-20T14:08:30;1.60;99.90
76203;DHT22;64985;46.364;17.008;2023-12-20T14:11:32;1.60;99.90
76203;DHT22;64985;46.364;17.008;2023-12-20T14:14:34;1.50;99.90
76203;DHT22;64985;46.364;17.008;2023-12-20T14:17:40;1.60;99.90
76203;DHT22;64985;46.364;17.008;2023-12-20T14:20:44;1.60;99.90
76203;DHT22;64985;46.364;17.008;2023-12-20T14:23:48;1.60;99.90
76203;DHT22;64985;46.364;17.008;2023-12-20T14:26:51;1.50;99.90
76203;DHT22;64985;46.364;17.008;2023-12-20T14:29:53;1.50;99.90
76203;DHT22;64985;46.364;17.008;2023-12-20T14:32:56;1.50;99.90
76203;DHT22;64985;46.364;17.008;2023-12-20T14:35:58;1.50;99.90
76203;DHT22;64985;46.364;17.008;2023-12-20T14:39:00;1.40;99.90
76203;DHT22;64985;46.364;17.008;2023-12-20T14:42:04;1.30;99.90
76203;DHT22;64985;46.364;17.008;2023-12-20T14:45:07;1.30;99.90
76203;DHT22;64985;46.364;17.008;2023-12-20T14:48:10;1.20;99.90
76203;DHT22;64985;46.364;17.008;2023-12-20T14:51:12;1.20;99.90
76203;DHT22;64985;46.364;17.008;2023-12-20T14:54:15;1.20;99.90
76203;DHT22;64985;46.364;17.008;2023-12-20T14:57:17;1.20;99.90
76203;DHT22;64985;46.364;17.008;2023-12-20T15:00:19;1.20;99.90
76203;DHT22;64985;46.364;17.008;2023-12-20T15:03:22;1.20;99.90
76203;DHT22;64985;46.364;17.008;2023-12-20T15:06:24;1.20;99.90
76203;DHT22;64985;46.364;17.008;2023-12-20T15:09:27;1.10;99.90
76203;DHT22;64985;46.364;17.008;2023-12-20T15:12:31;1.10;99.90
76203;DHT22;64985;46.364;17.008;2023-12-20T15:15:36;1.10;99.90
76203;DHT22;64985;46.364;17.008;2023-12-20T15:18:39;1.10;99.90
76203;DHT22;64985;46.364;17.008;2023-12-20T15:21:41;1.00;99.90
76203;DHT22;64985;46.364;17.008;2023-12-20T15:24:48;1.00;99.90
76203;DHT22;64985;46.364;17.008;2023-12-20T15:27:53;1.00;99.90
76203;DHT22;64985;46.364;17.008;2023-12-20T15:30:55;0.90;99.90
76203;DHT22;64985;46.364;17.008;2023-12-20T15:34:01;0.90;99.90
76203;DHT22;64985;46.364;17.008;2023-12-20T15:37:04;0.80;99.90
76203;DHT22;64985;46.364;17.008;2023-12-20T15:40:10;0.80;99.90
76203;DHT22;64985;46.364;17.008;2023-12-20T15:43:12;0.80;99.90
76203;DHT22;64985;46.364;17.008;2023-12-20T15:46:15;0.80;99.90
76203;DHT22;64985;46.364;17.008;2023-12-20T15:49:17;0.80;99.90
76203;DHT22;64985;46.364;17.008;2023-12-20T15:52:20;0.80;99.90
76203;DHT22;64985;46.364;17.008;2023-12-20T15:55:23;0.70;99.90
76203;DHT22;64985;46.364;17.008;2023-12-20T15:58:25;0.70;99.90
76203;DHT22;64985;46.364;17.008;2023-12-20T16:01:29;0.70;99.90
76203;DHT22;64985;46.364;17.008;2023-12-20T16:04:32;0.70;99.90
76203;DHT22;64985;46.364;17.008;2023-12-20T16:07:34;0.70;99.90
76203;DHT22;64985;46.364;17.008;2023-12-20T16:10:37;0.70;99.90
76203;DHT22;64985;46.364;17.008;2023-12-20T16:13:39;0.70;99.90
76203;DHT22;64985;46.364;17.008;2023-12-20T16:16:41;0.70;99.90
76203;DHT22;64985;46.364;17.008;2023-12-20T16:19:44;0.70;99.90
76203;DHT22;64985;46.364;17.008;2023-12-20T16:22:46;0.70;99.90
76203;DHT22;64985;46.364;17.008;2023-12-20T16:25:48;0.60;99.90
76203;DHT22;64985;46.364;17.008;2023-12-20T16:28:51;0.60;99.90
76203;DHT22;64985;46.364;17.008;2023-12-20T16:31:53;0.70;99.90
76203;DHT22;64985;46.364;17.008;2023-12-20T16:34:56;0.70;99.90
76203;DHT22;64985;46.364;17.008;2023-12-20T16:37:58;0.70;99.90
76203;DHT22;64985;46.364;17.008;2023-12-20T16:41:02;0.70;99.90
76203;DHT22;64985;46.364;17.008;2023-12-20T16:44:04;0.70;99.90
76203;DHT22;64985;46.364;17.008;2023-12-20T16:47:07;0.70;99.90
76203;DHT22;64985;46.364;17.008;2023-12-20T16:50:09;0.60;99.90
76203;DHT22;64985;46.364;17.008;2023-12-20T16:53:12;0.50;99.90
76203;DHT22;64985;46.364;17.008;2023-12-20T16:56:15;0.50;99.90
76203;DHT22;64985;46.364;17.008;2023-12-20T16:59:17;0.60;99.90
76203;DHT22;64985;46.364;17.008;2023-12-20T17:02:19;0.60;99.90
76203;DHT22;64985;46.364;17.008;2023-12-20T17:05:21;0.60;99.90
76203;DHT22;64985;46.364;17.008;2023-12-20T17:08:23;0.60;99.90
76203;DHT22;64985;46.364;17.008;2023-12-20T17:11:25;0.60;99.90
76203;DHT22;64985;46.364;17.008;2023-12-20T17:14:28;0.60;99.90
76203;DHT22;64985;46.364;17.008;2023-12-20T17:17:30;0.60;99.90
76203;DHT22;64985;46.364;17.008;2023-12-20T17:20:33;0.60;99.90
76203;DHT22;64985;46.364;17.008;2023-12-20T17:23:37;0.70;99.90
76203;DHT22;64985;46.364;17.008;2023-12-20T17:26:39;0.70;99.90
76203;DHT22;64985;46.364;17.008;2023-12-20T17:29:41;0.70;99.90
76203;DHT22;64985;46.364;17.008;2023-12-20T17:32:43;0.70;99.90
76203;DHT22;64985;46.364;17.008;2023-12-20T17:35:51;0.60;99.90
76203;DHT22;64985;46.364;17.008;2023-12-20T17:38:57;0.70;99.90
76203;DHT22;64985;46.364;17.008;2023-12-20T17:41:59;0.70;99.90
76203;DHT22;64985;46.364;17.008;2023-12-20T17:45:02;0.70;99.90
76203;DHT22;64985;46.364;17.008;2023-12-20T17:48:05;0.70;99.90
76203;DHT22;64985;46.364;17.008;2023-12-20T17:51:07;0.70;99.90
76203;DHT22;64985;46.364;17.008;2023-12-20T17:54:10;0.60;99.90
76203;DHT22;64985;46.364;17.008;2023-12-20T17:57:12;0.60;99.90
76203;DHT22;64985;46.364;17.008;2023-12-20T18:00:20;0.60;99.90
76203;DHT22;64985;46.364;17.008;2023-12-20T18:03:23;0.60;99.90
76203;DHT22;64985;46.364;17.008;2023-12-20T18:06:26;0.60;99.90
76203;DHT22;64985;46.364;17.008;2023-12-20T18:09:29;0.60;99.90
76203;DHT22;64985;46.364;17.008;2023-12-20T18:12:32;0.60;99.90
76203;DHT22;64985;46.364;17.008;2023-12-20T18:15:35;0.60;99.90
76203;DHT22;64985;46.364;17.008;2023-12-20T18:18:38;0.60;99.90
76203;DHT22;64985;46.364;17.008;2023-12-20T18:21:41;0.60;99.90
76203;DHT22;64985;46.364;17.008;2023-12-20T18:24:43;0.60;99.90
76203;DHT22;64985;46.364;17.008;2023-12-20T18:27:46;0.60;99.90
76203;DHT22;64985;46.364;17.008;2023-12-20T18:30:49;0.50;99.90
76203;DHT22;64985;46.364;17.008;2023-12-20T18:33:52;0.50;99.90
76203;DHT22;64985;46.364;17.008;2023-12-20T18:36:55;0.40;99.90
76203;DHT22;64985;46.364;17.008;2023-12-20T18:39:58;0.30;99.90
76203;DHT22;64985;46.364;17.008;2023-12-20T18:43:01;0.30;99.90
76203;DHT22;64985;46.364;17.008;2023-12-20T18:46:06;0.20;99.90
76203;DHT22;64985;46.364;17.008;2023-12-20T18:49:09;0.20;99.90
76203;DHT22;64985;46.364;17.008;2023-12-20T18:52:12;0.10;99.90
76203;DHT22;64985;46.364;17.008;2023-12-20T18:55:15;0.10;99.90
76203;DHT22;64985;46.364;17.008;2023-12-20T18:58:19;0.00;99.90
76203;DHT22;64985;46.364;17.008;2023-12-20T19:01:21;-0.10;99.90
76203;DHT22;64985;46.364;17.008;2023-12-20T19:04:25;-0.20;99.90
76203;DHT22;64985;46.364;17.008;2023-12-20T19:07:28;-0.30;99.90
76203;DHT22;64985;46.364;17.008;2023-12-20T19:10:32;-0.30;99.90
76203;DHT22;64985;46.364;17.008;2023-12-20T19:13:35;-0.40;99.90